createdAt,value
2023-01-10T00:02:26.092Z,7.89
2023-01-10T00:04:52.969Z,7.89
2023-01-10T00:07:19.644Z,7.97
2023-01-10T00:09:46.342Z,7.94
2023-01-10T00:12:31.196Z,7.92
2023-01-10T00:14:57.916Z,7.84
2023-01-10T00:17:24.701Z,7.95
2023-01-10T00:19:51.298Z,7.94
2023-01-10T00:22:20.508Z,7.95
2023-01-10T00:24:47.134Z,7.84
2023-01-10T00:27:17.006Z,7.81
2023-01-10T00:29:43.669Z,7.80
2023-01-10T00:32:10.430Z,7.84
2023-01-10T00:34:37.053Z,7.87
2023-01-10T00:37:03.789Z,7.87
2023-01-10T00:39:31.335Z,7.83
2023-01-10T00:42:16.755Z,7.69
2023-01-10T00:44:46.716Z,7.62
2023-01-10T00:47:13.635Z,7.64
2023-01-10T00:49:40.923Z,7.68
2023-01-10T00:52:07.876Z,7.63
2023-01-10T00:54:34.718Z,7.48
2023-01-10T00:57:01.370Z,7.26
2023-01-10T00:59:29.462Z,7.29
2023-01-10T01:01:56.134Z,7.29
2023-01-10T01:04:23.034Z,7.23
2023-01-10T01:06:50.845Z,7.29
2023-01-10T01:09:17.745Z,7.25
2023-01-10T01:11:44.394Z,7.47
2023-01-10T01:14:11.160Z,7.44
2023-01-10T01:16:37.881Z,7.55
2023-01-10T01:19:04.537Z,7.31
2023-01-10T01:21:31.094Z,7.58
2023-01-10T01:23:57.870Z,7.52
2023-01-10T01:26:25.400Z,7.39
2023-01-10T01:28:52.502Z,7.53
2023-01-10T01:31:19.416Z,7.45
2023-01-10T01:33:46.447Z,7.40
2023-01-10T01:36:13.656Z,7.39
2023-01-10T01:38:41.779Z,7.37
2023-01-10T01:41:28.864Z,7.45
2023-01-10T01:44:02.921Z,7.36
2023-01-10T01:46:32.767Z,7.39
2023-01-10T01:48:59.624Z,7.51
2023-01-10T01:51:29.849Z,7.51
2023-01-10T01:54:01.465Z,7.45
2023-01-10T01:56:34.698Z,7.29
2023-01-10T01:59:09.793Z,7.35
2023-01-10T02:01:38.820Z,7.35
2023-01-10T02:04:58.128Z,7.34
2023-01-10T02:07:28.236Z,7.38
2023-01-10T02:10:01.325Z,7.50
2023-01-10T02:12:31.036Z,7.45
2023-01-10T02:14:59.206Z,7.36
2023-01-10T02:17:26.004Z,7.34
2023-01-10T02:19:56.202Z,7.42
2023-01-10T02:22:47.736Z,7.51
2023-01-10T02:25:29.727Z,7.53
2023-01-10T02:28:20.286Z,7.45
2023-01-10T02:31:02.130Z,7.48
2023-01-10T02:33:44.613Z,7.45
2023-01-10T02:36:40.897Z,7.43
2023-01-10T02:39:20.096Z,7.35
2023-01-10T02:41:56.671Z,7.34
2023-01-10T02:44:44.418Z,7.29
2023-01-10T02:47:13.893Z,7.42
2023-01-10T02:49:45.181Z,7.37
2023-01-10T02:52:17.473Z,7.31
2023-01-10T02:54:44.875Z,7.32
2023-01-10T02:57:39.946Z,7.19
2023-01-10T03:00:09.750Z,7.18
2023-01-10T03:03:05.256Z,7.27
2023-01-10T03:05:40.162Z,7.25
2023-01-10T03:08:31.642Z,7.14
2023-01-10T03:11:01.722Z,7.29
2023-01-10T03:13:46.620Z,7.28
2023-01-10T03:16:24.787Z,7.19
2023-01-10T03:18:56.556Z,7.10
2023-01-10T03:21:24.493Z,7.09
2023-01-10T03:23:54.538Z,7.01
2023-01-10T03:26:28.961Z,7.12
2023-01-10T03:29:06.425Z,7.19
2023-01-10T03:31:42.033Z,7.08
2023-01-10T03:34:09.297Z,7.12
2023-01-10T03:36:49.221Z,7.02
2023-01-10T03:39:23.597Z,7.02
2023-01-10T03:42:01.507Z,6.96
2023-01-10T03:44:43.987Z,6.87
2023-01-10T03:47:29.880Z,6.80
2023-01-10T03:50:23.298Z,6.74
2023-01-10T03:52:49.977Z,6.77
2023-01-10T03:55:22.749Z,6.83
2023-01-10T03:57:49.441Z,6.72
2023-01-10T04:00:16.983Z,6.74
2023-01-10T04:02:44.430Z,6.88
2023-01-10T04:05:12.203Z,6.69
2023-01-10T04:07:39.463Z,6.77
2023-01-10T04:10:07.416Z,6.73
2023-01-10T04:12:34.031Z,6.81
2023-01-10T04:15:01.533Z,6.85
2023-01-10T04:17:30.216Z,6.89
2023-01-10T04:19:57.027Z,6.90
2023-01-10T04:22:23.779Z,6.91
2023-01-10T04:24:51.876Z,6.96
2023-01-10T04:27:18.838Z,6.81
2023-01-10T04:29:45.532Z,6.84
2023-01-10T04:32:12.528Z,6.85
2023-01-10T04:34:39.371Z,6.76
2023-01-10T04:37:06.091Z,6.80
2023-01-10T04:39:32.750Z,6.67
2023-01-10T04:41:59.422Z,6.69
2023-01-10T04:44:26.065Z,6.74
2023-01-10T04:46:53.935Z,6.77
2023-01-10T04:49:20.581Z,6.75
2023-01-10T04:51:47.270Z,6.69
2023-01-10T04:54:14.066Z,6.80
2023-01-10T04:56:40.863Z,6.79
2023-01-10T04:59:09.960Z,6.77
2023-01-10T05:01:38.925Z,6.72
2023-01-10T05:04:06.387Z,6.77
2023-01-10T05:06:33.371Z,6.85
2023-01-10T05:09:00.077Z,6.85
2023-01-10T05:11:26.735Z,6.74
2023-01-10T05:13:53.375Z,6.67
2023-01-10T05:16:20.109Z,6.70
2023-01-10T05:18:46.746Z,6.64
2023-01-10T05:21:13.998Z,6.53
2023-01-10T05:23:40.761Z,6.50
2023-01-10T05:26:08.769Z,6.45
2023-01-10T05:28:35.582Z,6.48
2023-01-10T05:31:02.361Z,6.53
2023-01-10T05:33:29.069Z,6.58
2023-01-10T05:35:55.737Z,6.68
2023-01-10T05:38:22.360Z,6.66
2023-01-10T05:40:49.011Z,6.67
2023-01-10T05:43:15.610Z,6.73
2023-01-10T05:45:42.684Z,6.74
2023-01-10T05:48:09.493Z,6.74
2023-01-10T05:50:36.204Z,6.81
2023-01-10T05:53:05.874Z,6.84
2023-01-10T05:55:33.461Z,6.88
2023-01-10T05:58:00.476Z,6.99
2023-01-10T06:00:27.197Z,6.89
2023-01-10T06:02:57.663Z,7.01
2023-01-10T06:05:24.841Z,7.10
2023-01-10T06:07:51.975Z,7.12
2023-01-10T06:10:18.631Z,7.09
2023-01-10T06:12:45.377Z,7.15
2023-01-10T06:15:12.108Z,7.08
2023-01-10T06:17:38.823Z,7.09
2023-01-10T06:20:06.277Z,7.02
2023-01-10T06:22:32.971Z,7.11
2023-01-10T06:25:02.265Z,7.13
2023-01-10T06:27:29.516Z,7.15
2023-01-10T06:29:56.740Z,7.12
2023-01-10T06:32:23.397Z,7.10
2023-01-10T06:34:50.039Z,7.13
2023-01-10T06:37:18.235Z,7.24
2023-01-10T06:39:46.696Z,7.07
2023-01-10T06:42:13.374Z,6.89
2023-01-10T06:44:39.997Z,7.10
2023-01-10T06:47:07.137Z,7.10
2023-01-10T06:49:33.718Z,7.03
2023-01-10T06:52:00.361Z,7.07
2023-01-10T06:54:27.005Z,7.07
2023-01-10T06:56:53.642Z,7.17
2023-01-10T06:59:20.306Z,7.18
2023-01-10T07:01:47.058Z,7.25
2023-01-10T07:04:13.915Z,7.21
2023-01-10T07:06:41.565Z,7.18
2023-01-10T07:09:08.350Z,7.23
2023-01-10T07:11:35.494Z,7.29
2023-01-10T07:14:02.448Z,7.32
2023-01-10T07:16:29.204Z,7.17
2023-01-10T07:18:55.920Z,6.95
2023-01-10T07:21:22.502Z,6.87
2023-01-10T07:23:50.449Z,6.91
2023-01-10T07:26:19.112Z,6.95
2023-01-10T07:28:50.976Z,6.98
2023-01-10T07:31:20.307Z,6.94
2023-01-10T07:33:47.167Z,6.97
2023-01-10T07:36:14.153Z,6.98
2023-01-10T07:38:40.979Z,7.02
2023-01-10T07:41:07.714Z,6.98
2023-01-10T07:43:34.589Z,7.04
2023-01-10T07:46:02.588Z,6.95
2023-01-10T07:48:30.271Z,6.97
2023-01-10T07:50:59.028Z,6.88
2023-01-10T07:53:27.282Z,6.85
2023-01-10T07:55:54.392Z,6.76
2023-01-10T07:58:21.068Z,6.74
2023-01-10T08:00:50.293Z,6.79
2023-01-10T08:03:17.728Z,6.76
2023-01-10T08:05:44.849Z,6.87
2023-01-10T08:08:12.299Z,6.91
2023-01-10T08:10:40.325Z,6.93
2023-01-10T08:13:18.403Z,6.84
2023-01-10T08:15:47.100Z,6.73
2023-01-10T08:18:13.851Z,6.76
2023-01-10T08:20:40.924Z,7.04
2023-01-10T08:23:07.615Z,6.95
2023-01-10T08:25:34.317Z,7.06
2023-01-10T08:28:00.877Z,6.73
2023-01-10T08:30:27.773Z,6.75
2023-01-10T08:32:54.367Z,6.84
2023-01-10T08:35:21.010Z,6.94
2023-01-10T08:37:47.763Z,6.98
2023-01-10T08:40:14.917Z,7.02
2023-01-10T08:42:41.539Z,6.98
2023-01-10T08:45:08.818Z,7.06
2023-01-10T08:47:35.432Z,6.98
2023-01-10T08:50:02.738Z,6.97
2023-01-10T08:52:31.099Z,6.93
2023-01-10T08:54:57.816Z,6.92
2023-01-10T08:57:24.428Z,6.89
2023-01-10T08:59:51.037Z,6.99
2023-01-10T09:02:17.828Z,6.90
2023-01-10T09:04:44.496Z,7.02
2023-01-10T09:07:11.172Z,7.12
2023-01-10T09:09:38.045Z,7.07
2023-01-10T09:12:24.800Z,7.09
2023-01-10T09:14:51.833Z,7.24
2023-01-10T09:17:18.636Z,7.29
2023-01-10T09:19:46.076Z,7.16
2023-01-10T09:22:12.952Z,7.22
2023-01-10T09:24:39.655Z,7.19
2023-01-10T09:27:06.302Z,7.06
2023-01-10T09:29:32.916Z,6.84
2023-01-10T09:31:59.623Z,7.02
2023-01-10T09:34:26.433Z,7.04
2023-01-10T09:36:54.378Z,7.01
2023-01-10T09:39:21.500Z,6.89
2023-01-10T09:42:09.591Z,6.88
2023-01-10T09:44:49.295Z,7.04
2023-01-10T09:47:22.633Z,7.04
2023-01-10T09:50:20.345Z,7.14
2023-01-10T09:53:21.937Z,7.21
2023-01-10T09:55:53.778Z,7.21
2023-01-10T09:58:27.654Z,7.25
2023-01-10T10:00:58.491Z,7.16
2023-01-10T10:03:42.253Z,7.13
2023-01-10T10:06:14.001Z,7.28
2023-01-10T10:08:43.236Z,7.37
2023-01-10T10:11:28.140Z,7.43
2023-01-10T10:14:15.351Z,7.48
2023-01-10T10:17:17.491Z,7.47
2023-01-10T10:19:52.438Z,7.24
2023-01-10T10:22:43.803Z,7.38
2023-01-10T10:25:13.036Z,7.35
2023-01-10T10:27:48.476Z,7.40
2023-01-10T10:30:29.557Z,7.31
2023-01-10T10:33:11.336Z,7.37
2023-01-10T10:35:45.137Z,7.37
2023-01-10T10:38:21.622Z,7.40
2023-01-10T10:40:50.033Z,7.38
2023-01-10T10:43:24.249Z,7.43
2023-01-10T10:45:56.144Z,7.58
2023-01-10T10:48:38.874Z,7.59
2023-01-10T10:51:15.947Z,7.70
2023-01-10T10:53:42.866Z,7.63
2023-01-10T10:56:15.701Z,7.63
2023-01-10T10:58:45.941Z,7.69
2023-01-10T11:01:16.586Z,7.73
2023-01-10T11:03:48.368Z,7.63
2023-01-10T11:06:16.936Z,7.63
2023-01-10T11:08:46.779Z,7.60
2023-01-10T11:11:20.921Z,7.71
2023-01-10T11:13:59.666Z,7.73
2023-01-10T11:16:31.210Z,7.89
2023-01-10T11:19:21.202Z,7.73
2023-01-10T11:21:53.463Z,7.72
2023-01-10T11:24:32.854Z,7.80
2023-01-10T11:27:04.380Z,7.80
2023-01-10T11:29:43.056Z,7.88
2023-01-10T11:32:15.298Z,7.86
2023-01-10T11:34:49.034Z,8.06
2023-01-10T11:37:27.119Z,8.18
2023-01-10T11:40:23.918Z,8.16
2023-01-10T11:42:54.578Z,7.91
2023-01-10T11:45:21.260Z,8.12
2023-01-10T11:47:57.210Z,7.90
2023-01-10T11:50:27.871Z,7.78
2023-01-10T11:52:55.873Z,7.61
2023-01-10T11:55:29.798Z,7.77
2023-01-10T11:58:02.737Z,7.74
2023-01-10T12:00:49.026Z,7.70
2023-01-10T12:03:38.323Z,7.68
2023-01-10T12:06:14.510Z,7.86
2023-01-10T12:08:45.029Z,7.91
2023-01-10T12:11:17.911Z,7.84
2023-01-10T12:13:50.475Z,7.69
2023-01-10T12:16:26.137Z,7.81
2023-01-10T12:18:55.839Z,7.58
2023-01-10T12:21:30.515Z,7.56
2023-01-10T12:24:01.993Z,7.82
2023-01-10T12:26:31.415Z,8.06
2023-01-10T12:29:06.137Z,8.17
2023-01-10T12:31:35.172Z,8.07
2023-01-10T12:34:27.657Z,8.07
2023-01-10T12:37:17.391Z,8.10
2023-01-10T12:39:49.263Z,8.03
2023-01-10T12:42:46.679Z,7.79
2023-01-10T12:45:23.100Z,7.79
2023-01-10T12:47:59.171Z,7.81
2023-01-10T12:50:32.456Z,8.11
2023-01-10T12:53:19.597Z,8.04
2023-01-10T12:55:46.933Z,7.73
2023-01-10T12:58:28.738Z,7.80
2023-01-10T13:00:59.997Z,7.94
2023-01-10T13:03:30.443Z,7.77
2023-01-10T13:05:58.930Z,7.88
2023-01-10T13:08:29.082Z,8.00
2023-01-10T13:10:58.003Z,8.02
2023-01-10T13:13:34.150Z,7.87
2023-01-10T13:16:21.935Z,7.82
2023-01-10T13:19:01.882Z,7.92
2023-01-10T13:21:30.030Z,7.93
2023-01-10T13:24:03.245Z,7.85
2023-01-10T13:27:05.462Z,7.73
2023-01-10T13:29:41.873Z,7.69
2023-01-10T13:32:30.761Z,7.77
2023-01-10T13:35:13.637Z,7.88
2023-01-10T13:37:43.157Z,7.95
2023-01-10T13:40:21.965Z,7.97
2023-01-10T13:43:37.301Z,7.91
2023-01-10T13:46:19.150Z,7.95
2023-01-10T13:48:48.855Z,7.73
2023-01-10T13:51:20.814Z,7.68
2023-01-10T13:53:53.434Z,7.71
2023-01-10T13:56:40.897Z,7.73
2023-01-10T13:59:52.225Z,7.77
2023-01-10T14:02:31.922Z,7.84
2023-01-10T14:05:07.635Z,8.18
2023-01-10T14:07:47.298Z,8.31
2023-01-10T14:10:30.104Z,8.39
2023-01-10T14:13:09.285Z,8.42
2023-01-10T14:15:41.814Z,8.44
2023-01-10T14:18:21.388Z,8.39
2023-01-10T14:21:08.046Z,8.38
2023-01-10T14:23:40.897Z,8.35
2023-01-10T14:26:17.772Z,8.46
2023-01-10T14:28:45.108Z,8.41
2023-01-10T14:31:21.297Z,8.44
2023-01-10T14:33:48.892Z,8.38
2023-01-10T14:36:19.890Z,8.29
2023-01-10T14:38:49.684Z,8.20
2023-01-10T14:41:27.514Z,8.42
2023-01-10T14:44:00.851Z,8.51
2023-01-10T14:46:55.369Z,8.35
2023-01-10T14:49:28.403Z,8.48
2023-01-10T14:52:11.092Z,8.14
2023-01-10T14:54:37.831Z,8.15
2023-01-10T14:57:04.636Z,8.19
2023-01-10T14:59:34.317Z,8.06
2023-01-10T15:02:04.478Z,8.00
2023-01-10T15:04:33.999Z,8.07
2023-01-10T15:07:04.460Z,8.00
2023-01-10T15:09:32.152Z,7.97
2023-01-10T15:12:01.971Z,8.02
2023-01-10T15:14:29.999Z,8.00
2023-01-10T15:17:02.176Z,7.76
2023-01-10T15:19:35.187Z,7.71
2023-01-10T15:22:04.023Z,7.89
2023-01-10T15:24:37.896Z,7.84
2023-01-10T15:27:09.188Z,7.79
2023-01-10T15:29:36.963Z,7.81
2023-01-10T15:32:10.551Z,7.89
2023-01-10T15:34:39.338Z,7.95
2023-01-10T15:37:08.286Z,7.98
2023-01-10T15:39:39.362Z,7.90
2023-01-10T15:42:12.131Z,7.87
2023-01-10T15:44:40.164Z,8.10
2023-01-10T15:47:49.671Z,8.18
2023-01-10T15:50:22.516Z,8.07
2023-01-10T15:53:11.111Z,8.02
2023-01-10T15:55:50.765Z,7.98
2023-01-10T15:58:35.829Z,7.92
2023-01-10T16:01:04.485Z,8.10
2023-01-10T16:03:37.240Z,8.27
2023-01-10T16:06:09.596Z,8.25
2023-01-10T16:08:38.566Z,8.14
2023-01-10T16:11:08.764Z,8.07
2023-01-10T16:13:37.414Z,8.06
2023-01-10T16:16:14.326Z,7.96
2023-01-10T16:18:40.975Z,7.99
2023-01-10T16:21:11.106Z,8.03
2023-01-10T16:23:38.239Z,8.19
2023-01-10T16:26:09.082Z,8.31
2023-01-10T16:28:38.987Z,8.20
2023-01-10T16:31:07.085Z,8.11
2023-01-10T16:33:34.183Z,8.06
2023-01-10T16:36:00.917Z,7.92
2023-01-10T16:38:28.680Z,7.85
2023-01-10T16:41:35.906Z,8.00
2023-01-10T16:44:03.041Z,8.02
2023-01-10T16:46:30.182Z,8.05
2023-01-10T16:48:57.608Z,8.07
2023-01-10T16:51:27.676Z,8.13
2023-01-10T16:53:54.828Z,8.03
2023-01-10T16:56:27.800Z,8.02
2023-01-10T16:58:55.817Z,8.13
2023-01-10T17:01:30.108Z,7.90
2023-01-10T17:04:01.511Z,8.09
2023-01-10T17:06:28.745Z,8.26
2023-01-10T17:08:55.509Z,8.19
2023-01-10T17:11:30.327Z,8.19
2023-01-10T17:13:58.195Z,8.14
2023-01-10T17:16:24.894Z,8.03
2023-01-10T17:18:56.344Z,8.07
2023-01-10T17:21:24.753Z,8.20
2023-01-10T17:23:51.605Z,8.25
2023-01-10T17:26:19.597Z,8.08
2023-01-10T17:28:48.346Z,8.07
2023-01-10T17:31:17.003Z,7.94
2023-01-10T17:33:43.820Z,8.30
2023-01-10T17:36:11.803Z,8.28
2023-01-10T17:38:39.014Z,8.19
2023-01-10T17:41:07.314Z,8.17
2023-01-10T17:43:34.566Z,8.04
2023-01-10T17:46:05.890Z,8.07
2023-01-10T17:48:34.687Z,8.03
2023-01-10T17:51:03.550Z,8.20
2023-01-10T17:53:31.200Z,8.02
2023-01-10T17:55:59.985Z,8.15
2023-01-10T17:58:28.197Z,8.38
2023-01-10T18:00:55.459Z,8.37
2023-01-10T18:03:22.767Z,8.44
2023-01-10T18:06:01.768Z,8.35
2023-01-10T18:08:28.628Z,8.28
2023-01-10T18:11:00.135Z,8.08
2023-01-10T18:13:31.156Z,8.20
2023-01-10T18:15:59.522Z,8.26
2023-01-10T18:18:27.950Z,8.25
2023-01-10T18:20:58.542Z,8.06
2023-01-10T18:23:32.436Z,8.03
2023-01-10T18:26:04.916Z,8.15
2023-01-10T18:28:41.718Z,8.27
2023-01-10T18:31:16.142Z,8.23
2023-01-10T18:33:43.153Z,8.14
2023-01-10T18:36:14.871Z,8.29
2023-01-10T18:38:42.032Z,8.35
2023-01-10T18:41:09.195Z,8.32
2023-01-10T18:43:41.428Z,8.51
2023-01-10T18:46:14.819Z,8.47
2023-01-10T18:48:41.636Z,8.42
2023-01-10T18:51:10.554Z,8.39
2023-01-10T18:53:37.516Z,8.18
2023-01-10T18:56:05.474Z,8.36
2023-01-10T18:58:34.930Z,8.36
2023-01-10T19:01:10.616Z,8.15
2023-01-10T19:03:38.189Z,8.30
2023-01-10T19:06:06.990Z,8.51
2023-01-10T19:08:33.758Z,8.38
2023-01-10T19:11:12.944Z,8.38
2023-01-10T19:13:41.394Z,8.40
2023-01-10T19:16:13.507Z,8.50
2023-01-10T19:18:40.858Z,8.42
2023-01-10T19:21:13.303Z,8.25
2023-01-10T19:23:40.271Z,8.24
2023-01-10T19:26:07.314Z,8.38
2023-01-10T19:28:33.932Z,8.17
2023-01-10T19:31:04.503Z,8.40
2023-01-10T19:33:32.961Z,8.46
2023-01-10T19:35:59.958Z,8.50
2023-01-10T19:38:26.783Z,8.43
2023-01-10T19:40:55.737Z,8.16
2023-01-10T19:43:24.168Z,8.18
2023-01-10T19:45:51.120Z,8.31
2023-01-10T19:48:17.955Z,8.35
2023-01-10T19:50:44.753Z,8.17
2023-01-10T19:53:11.459Z,8.31
2023-01-10T19:55:38.736Z,8.26
2023-01-10T19:58:05.699Z,8.31
2023-01-10T20:00:32.949Z,8.28
2023-01-10T20:03:00.260Z,8.20
2023-01-10T20:05:27.245Z,8.48
2023-01-10T20:07:54.128Z,8.39
2023-01-10T20:10:20.981Z,8.38
2023-01-10T20:12:47.823Z,8.33
2023-01-10T20:15:14.499Z,8.22
2023-01-10T20:17:43.115Z,8.21
2023-01-10T20:20:10.563Z,8.10
2023-01-10T20:22:37.397Z,8.03
2023-01-10T20:25:04.496Z,8.07
2023-01-10T20:27:31.252Z,8.27
2023-01-10T20:29:57.917Z,8.22
2023-01-10T20:32:24.945Z,8.21
2023-01-10T20:34:51.959Z,8.25
2023-01-10T20:37:19.075Z,8.20
2023-01-10T20:39:46.212Z,8.16
2023-01-10T20:42:13.024Z,8.19
2023-01-10T20:44:40.160Z,8.09
2023-01-10T20:47:07.010Z,8.20
2023-01-10T20:49:33.792Z,8.28
2023-01-10T20:52:00.412Z,8.18
2023-01-10T20:54:27.031Z,8.13
2023-01-10T20:56:53.772Z,8.17
2023-01-10T20:59:20.774Z,8.21
2023-01-10T21:01:47.547Z,8.10
2023-01-10T21:04:14.325Z,7.94
2023-01-10T21:06:41.214Z,8.04
2023-01-10T21:09:07.990Z,8.14
2023-01-10T21:11:44.415Z,8.35
2023-01-10T21:14:21.872Z,8.35
2023-01-10T21:16:50.344Z,8.19
2023-01-10T21:19:25.852Z,7.95
2023-01-10T21:21:57.097Z,7.90
2023-01-10T21:24:25.255Z,7.79
2023-01-10T21:26:51.907Z,7.74
2023-01-10T21:29:18.757Z,7.82
2023-01-10T21:31:45.479Z,7.71
2023-01-10T21:34:12.172Z,7.65
2023-01-10T21:36:38.915Z,7.65
2023-01-10T21:39:05.675Z,7.74
2023-01-10T21:41:50.716Z,7.74
2023-01-10T21:44:20.227Z,7.86
2023-01-10T21:46:49.074Z,7.73
2023-01-10T21:49:15.787Z,7.72
2023-01-10T21:51:43.542Z,7.62
2023-01-10T21:54:10.237Z,7.57
2023-01-10T21:56:36.959Z,7.53
2023-01-10T21:59:03.770Z,7.57
2023-01-10T22:01:30.462Z,7.59
2023-01-10T22:03:57.169Z,7.61
2023-01-10T22:06:24.028Z,7.48
2023-01-10T22:08:52.817Z,7.35
2023-01-10T22:11:19.708Z,7.38
2023-01-10T22:13:47.261Z,7.50
2023-01-10T22:16:14.041Z,7.53
2023-01-10T22:18:40.715Z,7.65
2023-01-10T22:21:07.375Z,7.68
2023-01-10T22:23:34.656Z,7.60
2023-01-10T22:26:04.025Z,7.63
2023-01-10T22:28:30.858Z,7.57
2023-01-10T22:31:02.493Z,7.56
2023-01-10T22:33:31.324Z,7.62
2023-01-10T22:36:05.676Z,7.59
2023-01-10T22:38:32.756Z,7.72
2023-01-10T22:41:13.773Z,7.76
2023-01-10T22:43:40.776Z,7.80
2023-01-10T22:46:08.744Z,7.97
2023-01-10T22:48:36.202Z,7.86
2023-01-10T22:51:05.227Z,8.02
2023-01-10T22:53:32.982Z,8.06
2023-01-10T22:56:04.813Z,7.81
2023-01-10T22:58:31.567Z,7.85
2023-01-10T23:00:58.401Z,7.89
2023-01-10T23:03:25.183Z,7.91
2023-01-10T23:05:56.450Z,7.82
2023-01-10T23:08:24.065Z,7.86
2023-01-10T23:10:50.820Z,7.86
2023-01-10T23:13:17.456Z,7.81
2023-01-10T23:15:44.045Z,7.72
2023-01-10T23:18:10.712Z,7.79
2023-01-10T23:20:37.606Z,7.74
2023-01-10T23:23:04.298Z,7.76
2023-01-10T23:25:31.113Z,7.72
2023-01-10T23:27:57.747Z,7.68
2023-01-10T23:30:26.613Z,7.71
2023-01-10T23:32:53.623Z,7.67
2023-01-10T23:35:20.304Z,7.73
2023-01-10T23:37:47.006Z,7.72
2023-01-10T23:40:13.831Z,7.86
2023-01-10T23:42:40.575Z,7.85
2023-01-10T23:45:07.887Z,7.91
2023-01-10T23:47:34.562Z,7.90
2023-01-10T23:50:01.163Z,8.01
2023-01-10T23:52:27.975Z,7.92
2023-01-10T23:54:54.625Z,8.10
2023-01-10T23:57:21.396Z,8.02
2023-01-10T23:59:48.009Z,8.24
